createdAt,value
2024-01-18T00:01:56.683Z,-0.30
2024-01-18T00:04:45.329Z,-0.30
2024-01-18T00:07:32.764Z,-0.40
2024-01-18T00:10:24.591Z,-0.30
2024-01-18T00:13:12.835Z,-0.40
2024-01-18T00:16:00.452Z,-0.30
2024-01-18T00:18:48.007Z,-0.30
2024-01-18T00:21:36.904Z,-0.30
2024-01-18T00:24:24.332Z,-0.30
2024-01-18T00:27:11.715Z,-0.20
2024-01-18T00:29:59.211Z,-0.30
2024-01-18T00:32:46.880Z,-0.30
2024-01-18T00:35:34.342Z,-0.10
2024-01-18T00:38:23.182Z,-0.20
2024-01-18T00:41:10.500Z,-0.20
2024-01-18T00:43:58.245Z,-0.20
2024-01-18T00:46:45.663Z,-0.30
2024-01-18T00:49:34.568Z,-0.20
2024-01-18T00:52:22.171Z,-0.30
2024-01-18T00:55:12.028Z,-0.30
2024-01-18T00:57:59.646Z,-0.30
2024-01-18T01:00:48.457Z,-0.40
2024-01-18T01:03:36.024Z,-0.30
2024-01-18T01:06:23.306Z,-0.40
2024-01-18T01:09:11.101Z,-0.40
2024-01-18T01:11:59.741Z,-0.40
2024-01-18T01:14:47.105Z,-0.40
2024-01-18T01:17:34.818Z,-0.40
2024-01-18T01:20:22.048Z,-0.40
2024-01-18T01:23:09.618Z,-0.50
2024-01-18T01:25:58.003Z,-0.50
2024-01-18T01:28:46.784Z,-0.50
2024-01-18T01:31:34.289Z,-0.60
2024-01-18T01:34:21.965Z,-0.60
2024-01-18T01:37:09.358Z,-0.50
2024-01-18T01:39:57.066Z,-0.50
2024-01-18T01:42:44.705Z,-0.60
2024-01-18T01:45:33.823Z,-0.60
2024-01-18T01:48:21.977Z,-0.60
2024-01-18T01:51:09.709Z,-0.60
2024-01-18T01:53:57.414Z,-0.60
2024-01-18T01:56:47.455Z,-0.60
2024-01-18T01:59:35.592Z,-0.60
2024-01-18T02:02:25.238Z,-0.60
2024-01-18T02:05:13.771Z,-0.60
2024-01-18T02:08:01.804Z,-0.60
2024-01-18T02:10:49.628Z,-0.60
2024-01-18T02:13:36.870Z,-0.60
2024-01-18T02:16:24.795Z,-0.60
2024-01-18T02:19:13.578Z,-0.60
2024-01-18T02:22:03.971Z,-0.60
2024-01-18T02:24:53.232Z,-0.50
2024-01-18T02:27:42.224Z,-0.50
2024-01-18T02:30:29.514Z,-0.50
2024-01-18T02:33:17.293Z,-0.60
2024-01-18T02:36:05.053Z,-0.60
2024-01-18T02:38:53.165Z,-0.50
2024-01-18T02:41:42.393Z,-0.50
2024-01-18T02:44:32.220Z,-0.50
2024-01-18T02:47:19.647Z,-0.50
2024-01-18T02:50:08.160Z,-0.40
2024-01-18T02:52:55.807Z,-0.40
2024-01-18T02:55:43.503Z,-0.50
2024-01-18T02:58:30.993Z,-0.40
2024-01-18T03:01:19.873Z,-0.40
2024-01-18T03:04:07.237Z,-0.40
2024-01-18T03:06:54.918Z,-0.40
2024-01-18T03:09:42.635Z,-0.40
2024-01-18T03:12:30.080Z,-0.50
2024-01-18T03:15:18.096Z,-0.50
2024-01-18T03:18:08.126Z,-0.60
2024-01-18T03:20:56.336Z,-0.60
2024-01-18T03:23:43.653Z,-0.70
2024-01-18T03:26:31.406Z,-0.70
2024-01-18T03:29:18.721Z,-0.70
2024-01-18T03:32:06.902Z,-0.70
2024-01-18T03:34:56.064Z,-0.70
2024-01-18T03:37:43.697Z,-0.70
2024-01-18T03:40:31.279Z,-0.60
2024-01-18T03:43:18.994Z,-0.70
2024-01-18T03:46:06.302Z,-0.60
2024-01-18T03:48:53.879Z,-0.70
2024-01-18T03:51:43.604Z,-0.70
2024-01-18T03:54:31.379Z,-0.60
2024-01-18T03:57:18.710Z,-0.70
2024-01-18T04:00:07.192Z,-0.70
2024-01-18T04:02:55.710Z,-0.70
2024-01-18T04:05:43.236Z,-0.60
2024-01-18T04:08:32.160Z,-0.60
2024-01-18T04:11:19.492Z,-0.70
2024-01-18T04:14:06.794Z,-0.60
2024-01-18T04:16:54.169Z,-0.60
2024-01-18T04:19:42.088Z,-0.70
2024-01-18T04:22:29.343Z,-0.70
2024-01-18T04:25:18.410Z,-0.80
2024-01-18T04:28:06.475Z,-0.70
2024-01-18T04:30:53.837Z,-0.80
2024-01-18T04:33:41.478Z,-0.80
2024-01-18T04:36:29.974Z,-0.80
2024-01-18T04:39:17.976Z,-0.80
2024-01-18T04:42:07.479Z,-0.80
2024-01-18T04:44:55.097Z,-0.80
2024-01-18T04:47:42.759Z,-0.80
2024-01-18T04:50:30.469Z,-0.80
2024-01-18T04:53:18.284Z,-0.80
2024-01-18T04:56:06.569Z,-0.70
2024-01-18T04:58:55.738Z,-0.70
2024-01-18T05:01:44.697Z,-0.60
2024-01-18T05:04:32.209Z,-0.70
2024-01-18T05:07:19.579Z,-0.70
2024-01-18T05:10:09.999Z,-0.60
2024-01-18T05:12:57.703Z,-0.60
2024-01-18T05:15:47.665Z,-0.60
2024-01-18T05:18:36.448Z,-0.60
2024-01-18T05:21:24.650Z,-0.60
2024-01-18T05:24:12.101Z,-0.60
2024-01-18T05:26:59.886Z,-0.60
2024-01-18T05:29:48.837Z,-0.70
2024-01-18T05:32:37.412Z,-0.70
2024-01-18T05:35:24.760Z,-0.80
2024-01-18T05:38:12.425Z,-0.70
2024-01-18T05:41:00.143Z,-0.80
2024-01-18T05:43:47.671Z,-0.70
2024-01-18T05:46:35.132Z,-0.60
2024-01-18T05:49:24.279Z,-0.70
2024-01-18T05:52:11.930Z,-0.70
2024-01-18T05:55:00.025Z,-0.60
2024-01-18T05:57:48.326Z,-0.60
2024-01-18T06:00:35.893Z,-0.60
2024-01-18T06:03:23.284Z,-0.60
2024-01-18T06:06:12.630Z,-0.60
2024-01-18T06:08:59.897Z,-0.60
2024-01-18T06:11:47.905Z,-0.60
2024-01-18T06:14:35.660Z,-0.60
2024-01-18T06:17:24.457Z,-0.70
2024-01-18T06:20:12.381Z,-0.60
2024-01-18T06:23:01.441Z,-0.70
2024-01-18T06:25:48.967Z,-0.60
2024-01-18T06:28:36.602Z,-0.60
2024-01-18T06:31:27.601Z,-0.70
2024-01-18T06:34:15.047Z,-0.70
2024-01-18T06:37:02.859Z,-0.70
2024-01-18T06:39:53.208Z,-0.70
2024-01-18T06:42:40.574Z,-0.70
2024-01-18T06:45:28.211Z,-0.70
2024-01-18T06:48:15.788Z,-0.70
2024-01-18T06:51:03.326Z,-0.70
2024-01-18T06:53:50.901Z,-0.80
2024-01-18T06:56:39.707Z,-0.90
2024-01-18T06:59:27.270Z,-0.90
2024-01-18T07:02:14.924Z,-0.90
2024-01-18T07:05:02.663Z,-0.90
2024-01-18T07:07:50.105Z,-0.80
2024-01-18T07:10:37.458Z,-0.90
2024-01-18T07:13:29.181Z,-0.90
2024-01-18T07:16:16.621Z,-0.90
2024-01-18T07:19:04.123Z,-0.90
2024-01-18T07:21:51.544Z,-0.90
2024-01-18T07:24:39.273Z,-0.90
2024-01-18T07:27:26.730Z,-0.90
2024-01-18T07:30:16.891Z,-0.90
2024-01-18T07:33:04.701Z,-0.90
2024-01-18T07:35:52.012Z,-0.90
2024-01-18T07:38:39.576Z,-0.90
2024-01-18T07:41:28.035Z,-0.90
2024-01-18T07:44:19.191Z,-0.90
2024-01-18T07:47:11.148Z,-0.90
2024-01-18T07:50:00.396Z,-0.90
2024-01-18T07:52:48.984Z,-0.90
2024-01-18T07:55:36.768Z,-0.80
2024-01-18T07:58:24.334Z,-0.80
2024-01-18T08:01:11.920Z,-0.80
2024-01-18T08:04:01.210Z,-0.80
2024-01-18T08:06:49.169Z,-0.90
2024-01-18T08:09:39.177Z,-0.80
2024-01-18T08:12:26.673Z,-0.70
2024-01-18T08:15:14.683Z,-0.80
2024-01-18T08:18:02.463Z,-0.80
2024-01-18T08:20:51.323Z,-0.70
2024-01-18T08:23:38.432Z,-0.70
2024-01-18T08:26:26.107Z,-0.70
2024-01-18T08:29:13.905Z,-0.70
2024-01-18T08:32:02.874Z,-0.70
2024-01-18T08:34:50.391Z,-0.80
2024-01-18T08:37:39.998Z,-0.70
2024-01-18T08:40:28.365Z,-0.70
2024-01-18T08:43:16.143Z,-0.80
2024-01-18T08:46:07.999Z,-0.80
2024-01-18T08:48:55.183Z,-0.80
2024-01-18T08:51:42.712Z,-0.80
2024-01-18T08:54:32.868Z,-0.70
2024-01-18T08:57:20.103Z,-0.80
2024-01-18T09:00:08.980Z,-0.70
2024-01-18T09:02:56.312Z,-0.70
2024-01-18T09:05:44.012Z,-0.70
2024-01-18T09:08:31.345Z,-0.60
2024-01-18T09:11:20.049Z,-0.60
2024-01-18T09:14:07.825Z,-0.60
2024-01-18T09:16:55.084Z,-0.60
2024-01-18T09:19:44.758Z,-0.50
2024-01-18T09:22:32.583Z,-0.50
2024-01-18T09:25:20.411Z,-0.50
2024-01-18T09:28:10.435Z,-0.40
2024-01-18T09:30:58.529Z,-0.40
2024-01-18T09:33:45.874Z,-0.40
2024-01-18T09:36:33.388Z,-0.30
2024-01-18T09:39:20.824Z,-0.20
2024-01-18T09:42:15.702Z,-0.20
2024-01-18T09:45:11.330Z,-0.30
2024-01-18T09:47:59.099Z,-0.20
2024-01-18T09:50:47.337Z,-0.20
2024-01-18T09:53:36.383Z,-0.20
2024-01-18T09:56:25.869Z,-0.20
2024-01-18T09:59:17.079Z,-0.10
2024-01-18T10:02:06.048Z,-0.10
2024-01-18T10:04:54.710Z,-0.20
2024-01-18T10:07:43.086Z,-0.10
2024-01-18T10:10:30.834Z,-0.10
2024-01-18T10:13:18.482Z,0.00
2024-01-18T10:16:07.839Z,0.30
2024-01-18T10:18:57.282Z,0.00
2024-01-18T10:21:45.962Z,0.00
2024-01-18T10:24:34.001Z,0.10
2024-01-18T10:27:21.806Z,-0.10
2024-01-18T10:30:12.189Z,-0.10
2024-01-18T10:33:02.882Z,-0.10
2024-01-18T10:35:51.863Z,0.00
2024-01-18T10:38:42.277Z,0.10
2024-01-18T10:41:31.654Z,0.10
2024-01-18T10:44:19.267Z,0.10
2024-01-18T10:47:10.490Z,0.20
2024-01-18T10:49:59.254Z,0.20
2024-01-18T10:52:48.323Z,0.30
2024-01-18T10:55:36.188Z,0.30
2024-01-18T10:58:23.812Z,0.30
2024-01-18T11:01:12.225Z,0.20
2024-01-18T11:04:00.669Z,0.30
2024-01-18T11:06:49.153Z,0.30
2024-01-18T11:09:38.835Z,0.20
2024-01-18T11:12:27.442Z,0.30
2024-01-18T11:15:16.960Z,0.30
2024-01-18T11:18:10.963Z,0.30
2024-01-18T11:21:10.465Z,0.30
2024-01-18T11:23:58.598Z,0.30
2024-01-18T11:26:47.394Z,0.30
2024-01-18T11:29:37.326Z,0.50
2024-01-18T11:32:24.520Z,0.20
2024-01-18T11:35:13.598Z,0.40
2024-01-18T11:38:19.737Z,0.30
2024-01-18T11:41:11.798Z,0.30
2024-01-18T11:44:07.471Z,0.40
2024-01-18T11:46:54.889Z,0.40
2024-01-18T11:49:42.468Z,0.40
2024-01-18T11:52:33.594Z,0.40
2024-01-18T11:55:25.175Z,0.40
2024-01-18T11:58:12.550Z,0.40
2024-01-18T12:01:01.751Z,0.30
2024-01-18T12:03:49.653Z,0.20
2024-01-18T12:06:36.978Z,0.30
2024-01-18T12:09:24.516Z,0.30
2024-01-18T12:12:12.052Z,0.30
2024-01-18T12:14:59.846Z,0.40
2024-01-18T12:17:49.026Z,0.40
2024-01-18T12:20:37.823Z,0.30
2024-01-18T12:23:25.801Z,0.30
2024-01-18T12:26:13.930Z,0.40
2024-01-18T12:29:02.069Z,0.30
2024-01-18T12:31:49.537Z,0.30
2024-01-18T12:34:39.366Z,0.30
2024-01-18T12:37:27.096Z,0.30
2024-01-18T12:40:14.960Z,0.20
2024-01-18T12:43:03.715Z,0.30
2024-01-18T12:45:52.848Z,0.30
2024-01-18T12:48:40.535Z,0.30
2024-01-18T12:51:30.284Z,0.30
2024-01-18T12:54:18.850Z,0.30
2024-01-18T12:57:06.800Z,0.30
2024-01-18T12:59:54.239Z,0.40
2024-01-18T13:02:43.121Z,0.40
2024-01-18T13:05:30.636Z,0.40
2024-01-18T13:08:19.728Z,0.40
2024-01-18T13:11:07.519Z,0.50
2024-01-18T13:13:55.277Z,0.40
2024-01-18T13:16:44.451Z,0.40
2024-01-18T13:19:31.934Z,0.40
2024-01-18T13:22:19.222Z,0.50
2024-01-18T13:25:09.117Z,0.50
2024-01-18T13:27:56.344Z,0.60
2024-01-18T13:30:45.203Z,0.60
2024-01-18T13:33:32.679Z,0.60
2024-01-18T13:36:20.213Z,0.60
2024-01-18T13:39:09.659Z,0.60
2024-01-18T13:41:58.783Z,0.60
2024-01-18T13:44:46.054Z,0.60
2024-01-18T13:47:34.441Z,0.70
2024-01-18T13:50:22.848Z,0.70
2024-01-18T13:53:10.843Z,0.60
2024-01-18T13:55:58.569Z,0.60
2024-01-18T13:58:47.239Z,0.60
2024-01-18T14:01:35.275Z,0.60
2024-01-18T14:04:23.258Z,0.60
2024-01-18T14:07:10.893Z,0.60
2024-01-18T14:09:58.517Z,0.60
2024-01-18T14:12:46.150Z,0.60
2024-01-18T14:15:37.134Z,0.50
2024-01-18T14:18:25.791Z,0.50
2024-01-18T14:21:13.464Z,0.50
2024-01-18T14:24:00.965Z,0.50
2024-01-18T14:26:48.882Z,0.50
2024-01-18T14:29:36.452Z,0.50
2024-01-18T14:32:25.458Z,0.50
2024-01-18T14:35:13.082Z,0.50
2024-01-18T14:38:00.518Z,0.40
2024-01-18T14:40:49.231Z,0.30
2024-01-18T14:43:37.541Z,0.30
2024-01-18T14:46:24.831Z,0.30
2024-01-18T14:49:13.880Z,0.30
2024-01-18T14:52:01.400Z,0.20
2024-01-18T14:54:50.664Z,0.20
2024-01-18T14:57:38.879Z,0.20
2024-01-18T15:00:27.468Z,0.20
2024-01-18T15:03:15.623Z,0.10
2024-01-18T15:06:05.240Z,0.10
2024-01-18T15:08:52.777Z,0.10
2024-01-18T15:11:40.228Z,0.10
2024-01-18T15:14:28.096Z,0.00
2024-01-18T15:17:15.424Z,0.00
2024-01-18T15:20:03.167Z,0.00
2024-01-18T15:22:52.029Z,0.00
2024-01-18T15:25:41.556Z,-0.10
2024-01-18T15:28:28.987Z,-0.10
2024-01-18T15:31:16.583Z,-0.20
2024-01-18T15:34:04.731Z,-0.20
2024-01-18T15:36:52.175Z,-0.20
2024-01-18T15:39:41.101Z,-0.20
2024-01-18T15:42:28.888Z,-0.20
2024-01-18T15:45:16.214Z,-0.20
2024-01-18T15:48:03.645Z,-0.30
2024-01-18T15:50:51.323Z,-0.30
2024-01-18T15:53:38.820Z,-0.30
2024-01-18T15:56:27.894Z,-0.30
2024-01-18T15:59:15.273Z,-0.30
2024-01-18T16:02:03.837Z,-0.30
2024-01-18T16:04:51.349Z,-0.30
2024-01-18T16:07:38.545Z,-0.40
2024-01-18T16:10:29.046Z,-0.40
2024-01-18T16:13:17.598Z,-0.40
2024-01-18T16:16:05.186Z,-0.40
2024-01-18T16:18:52.667Z,-0.40
2024-01-18T16:21:40.372Z,-0.40
2024-01-18T16:24:28.044Z,-0.40
2024-01-18T16:27:15.176Z,-0.40
2024-01-18T16:30:09.650Z,-0.50
2024-01-18T16:33:04.288Z,-0.50
2024-01-18T16:35:51.500Z,-0.60
2024-01-18T16:38:38.771Z,-0.50
2024-01-18T16:41:26.295Z,-0.60
2024-01-18T16:44:14.018Z,-0.60
2024-01-18T16:47:02.665Z,-0.60
2024-01-18T16:49:50.360Z,-0.60
2024-01-18T16:52:38.215Z,-0.70
2024-01-18T16:55:25.912Z,-0.60
2024-01-18T16:58:13.276Z,-0.60
2024-01-18T17:01:00.830Z,-0.70
2024-01-18T17:03:49.902Z,-0.70
2024-01-18T17:06:40.988Z,-0.70
2024-01-18T17:09:28.584Z,-0.80
2024-01-18T17:12:16.331Z,-0.80
2024-01-18T17:15:04.720Z,-0.80
2024-01-18T17:17:52.545Z,-0.80
2024-01-18T17:20:41.495Z,-0.80
2024-01-18T17:23:28.897Z,-0.70
2024-01-18T17:26:16.436Z,-0.80
2024-01-18T17:29:04.451Z,-0.80
2024-01-18T17:31:52.089Z,-0.80
2024-01-18T17:34:39.605Z,-0.80
2024-01-18T17:37:28.434Z,-0.90
2024-01-18T17:40:16.007Z,-0.90
2024-01-18T17:43:03.511Z,-0.90
2024-01-18T17:45:51.102Z,-0.90
2024-01-18T17:48:39.511Z,-0.80
2024-01-18T17:51:30.234Z,-0.90
2024-01-18T17:54:19.493Z,-1.00
2024-01-18T17:57:07.063Z,-0.90
2024-01-18T17:59:54.836Z,-1.00
2024-01-18T18:02:42.102Z,-1.00
2024-01-18T18:05:29.729Z,-1.00
2024-01-18T18:08:17.468Z,-1.00
2024-01-18T18:11:06.741Z,-1.10
2024-01-18T18:13:54.612Z,-1.20
2024-01-18T18:16:42.133Z,-1.20
2024-01-18T18:19:29.716Z,-1.20
2024-01-18T18:22:18.630Z,-1.30
2024-01-18T18:25:07.107Z,-1.20
2024-01-18T18:27:55.818Z,-1.30
2024-01-18T18:30:52.364Z,-1.30
2024-01-18T18:33:44.980Z,-1.30
2024-01-18T18:36:32.633Z,-1.40
2024-01-18T18:39:20.427Z,-1.40
2024-01-18T18:42:08.705Z,-1.40
2024-01-18T18:44:57.523Z,-1.40
2024-01-18T18:47:45.308Z,-1.30
2024-01-18T18:50:32.850Z,-1.30
2024-01-18T18:53:20.031Z,-1.30
2024-01-18T18:56:07.737Z,-1.30
2024-01-18T18:58:55.133Z,-1.30
2024-01-18T19:01:44.176Z,-1.40
2024-01-18T19:04:31.733Z,-1.30
2024-01-18T19:07:19.359Z,-1.50
2024-01-18T19:10:09.480Z,-1.40
2024-01-18T19:12:57.229Z,-1.30
2024-01-18T19:15:45.177Z,-1.40
2024-01-18T19:18:34.031Z,-1.40
2024-01-18T19:21:21.730Z,-1.30
2024-01-18T19:24:09.480Z,-1.30
2024-01-18T19:26:56.789Z,-1.30
2024-01-18T19:29:45.514Z,-1.40
2024-01-18T19:32:33.177Z,-1.40
2024-01-18T19:35:22.329Z,-1.30
2024-01-18T19:38:09.588Z,-1.40
2024-01-18T19:40:57.000Z,-1.40
2024-01-18T19:43:44.639Z,-1.60
2024-01-18T19:46:32.138Z,-1.40
2024-01-18T19:49:19.673Z,-1.40
2024-01-18T19:52:09.933Z,-1.40
2024-01-18T19:54:59.975Z,-1.40
2024-01-18T19:57:48.116Z,-1.40
2024-01-18T20:00:35.482Z,-1.40
2024-01-18T20:03:24.072Z,-1.60
2024-01-18T20:06:12.025Z,-1.50
2024-01-18T20:09:00.868Z,-1.50
2024-01-18T20:11:49.574Z,-1.50
2024-01-18T20:14:38.413Z,-1.50
2024-01-18T20:17:26.331Z,-1.40
2024-01-18T20:20:13.954Z,-1.50
2024-01-18T20:23:01.750Z,-1.50
2024-01-18T20:25:50.817Z,-1.30
2024-01-18T20:28:38.152Z,-1.60
2024-01-18T20:31:25.713Z,-1.60
2024-01-18T20:34:13.223Z,-1.70
2024-01-18T20:37:01.336Z,-1.80
2024-01-18T20:39:48.873Z,-1.80
2024-01-18T20:42:37.925Z,-1.80
2024-01-18T20:45:25.311Z,-1.80
2024-01-18T20:48:12.997Z,-1.70
2024-01-18T20:51:00.370Z,-1.90
2024-01-18T20:53:48.103Z,-1.90
2024-01-18T20:56:35.662Z,-2.00
2024-01-18T20:59:24.507Z,-1.90
2024-01-18T21:02:11.757Z,-1.90
2024-01-18T21:04:59.401Z,-2.00
2024-01-18T21:07:48.140Z,-2.00
2024-01-18T21:10:35.637Z,-2.10
2024-01-18T21:13:23.379Z,-2.10
2024-01-18T21:16:12.015Z,-2.10
2024-01-18T21:18:59.419Z,-2.20
2024-01-18T21:21:47.387Z,-2.20
2024-01-18T21:24:34.650Z,-2.20
2024-01-18T21:27:22.221Z,-2.20
2024-01-18T21:30:11.031Z,-2.30
2024-01-18T21:33:00.194Z,-2.30
2024-01-18T21:35:48.082Z,-2.40
2024-01-18T21:38:35.431Z,-2.40
2024-01-18T21:41:23.078Z,-2.40
2024-01-18T21:44:11.044Z,-2.50
2024-01-18T21:46:58.455Z,-2.60
2024-01-18T21:49:47.291Z,-2.50
2024-01-18T21:52:35.065Z,-2.60
2024-01-18T21:55:23.098Z,-2.60
2024-01-18T21:58:10.564Z,-2.60
2024-01-18T22:00:58.617Z,-2.60
2024-01-18T22:03:46.682Z,-2.70
2024-01-18T22:06:36.402Z,-2.10
2024-01-18T22:09:30.890Z,-2.60
2024-01-18T22:12:24.598Z,-2.60
2024-01-18T22:15:12.179Z,-2.70
2024-01-18T22:18:00.027Z,-2.70
2024-01-18T22:20:47.542Z,-2.60
2024-01-18T22:23:36.510Z,-2.70
2024-01-18T22:26:23.922Z,-2.70
2024-01-18T22:29:11.542Z,-2.70
2024-01-18T22:31:58.939Z,-2.80
2024-01-18T22:34:48.765Z,-2.90
2024-01-18T22:37:37.782Z,-2.90
2024-01-18T22:40:26.579Z,-2.90
2024-01-18T22:43:14.004Z,-2.90
2024-01-18T22:46:01.659Z,-2.80
2024-01-18T22:48:49.320Z,-2.80
2024-01-18T22:51:40.056Z,-2.90
2024-01-18T22:54:27.321Z,-2.90
2024-01-18T22:57:16.181Z,-2.90
2024-01-18T23:00:06.596Z,-2.90
2024-01-18T23:02:54.324Z,-2.90
2024-01-18T23:05:42.246Z,-2.90
2024-01-18T23:08:29.610Z,-2.90
2024-01-18T23:11:17.441Z,-3.00
2024-01-18T23:14:06.140Z,-2.90
2024-01-18T23:16:53.430Z,-2.90
2024-01-18T23:19:40.806Z,-3.00
2024-01-18T23:22:28.514Z,-3.10
2024-01-18T23:25:17.469Z,-3.10
2024-01-18T23:28:05.119Z,-3.10
2024-01-18T23:30:54.087Z,-3.20
2024-01-18T23:33:41.555Z,-3.20
2024-01-18T23:36:29.271Z,-3.20
2024-01-18T23:39:16.937Z,-3.20
2024-01-18T23:42:04.396Z,-3.20
2024-01-18T23:44:51.934Z,-3.20
2024-01-18T23:47:41.060Z,-3.20
2024-01-18T23:50:28.341Z,-3.30
2024-01-18T23:53:15.861Z,-3.30
2024-01-18T23:56:04.006Z,-3.30
2024-01-18T23:58:51.736Z,-3.20
